Time;durP1;ratioP1;P1;durP2;ratioP2;P2;SDS_P1;SDS_P2;PMS_P1;PMS_P2;Temp;Humidity;BMP_temperature;BMP_pressure;BME280_temperature;BME280_humidity;BME280_pressure;Samples;Min_cycle;Max_cycle;Signal;HPM_P1;HPM_P2
2022/11/02 00:02:11;;;;;;;;;1.50;1.50;;;;;;;;5116371;27;45487;-74
2022/11/02 00:04:37;;;;;;;;;2.25;2.25;;;;;;;;5115471;27;45574;-71
2022/11/02 00:07:02;;;;;;;;;3.25;3.25;;;;;;;;5117156;27;46197;-72
2022/11/02 00:09:27;;;;;;;;;2.00;2.00;;;;;;;;5117731;27;45285;-72
2022/11/02 00:11:52;;;;;;;;;1.75;1.75;;;;;;;;5115700;27;45350;-73
2022/11/02 00:14:17;;;;;;;;;2.00;2.00;;;;;;;;5119210;27;45367;-74
2022/11/02 00:16:43;;;;;;;;;3.25;2.00;;;;;;;;5117074;27;46689;-74
2022/11/02 00:19:08;;;;;;;;;2.50;2.00;;;;;;;;5114613;27;45451;-73
2022/11/02 00:21:34;;;;;;;;;2.00;2.00;;;;;;;;5117096;27;45333;-72
2022/11/02 00:24:00;;;;;;;;;2.00;2.00;;;;;;;;5116939;27;45393;-74
2022/11/02 00:26:25;;;;;;;;;1.00;1.00;;;;;;;;5115398;27;45413;-74
2022/11/02 00:28:51;;;;;;;;;2.00;2.00;;;;;;;;5116091;27;45268;-73
2022/11/02 00:31:16;;;;;;;;;1.50;1.50;;;;;;;;5117227;27;45369;-76
2022/11/02 00:33:42;;;;;;;;;3.00;3.00;;;;;;;;5116466;27;45556;-73
2022/11/02 00:36:07;;;;;;;;;2.00;2.00;;;;;;;;5116532;27;45335;-73
2022/11/02 00:38:32;;;;;;;;;1.00;1.00;;;;;;;;5116382;27;45407;-74
2022/11/02 00:40:58;;;;;;;;;2.50;2.50;;;;;;;;5116717;27;45226;-73
2022/11/02 00:43:23;;;;;;;;;2.00;2.00;;;;;;;;5116870;27;45592;-75
2022/11/02 00:45:48;;;;;;;;;1.50;1.50;;;;;;;;5116315;27;46460;-74
2022/11/02 00:48:13;;;;;;;;;1.25;1.25;;;;;;;;5116808;27;45500;-74
2022/11/02 00:50:39;;;;;;;;;2.50;2.50;;;;;;;;5116941;27;45298;-74
2022/11/02 00:53:04;;;;;;;;;1.00;1.00;;;;;;;;5117110;27;45489;-73
2022/11/02 00:55:29;;;;;;;;;2.50;2.50;;;;;;;;5118322;27;45454;-74
2022/11/02 00:57:54;;;;;;;;;1.00;1.00;;;;;;;;5123696;27;45638;-73
2022/11/02 01:00:20;;;;;;;;;1.50;1.50;;;;;;;;5125835;27;45229;-74
2022/11/02 01:02:45;;;;;;;;;1.00;1.00;;;;;;;;5116714;27;45522;-74
2022/11/02 01:05:10;;;;;;;;;3.00;2.00;;;;;;;;5115827;27;46076;-73
2022/11/02 01:07:36;;;;;;;;;1.00;1.00;;;;;;;;5116318;27;45231;-74
2022/11/02 01:10:02;;;;;;;;;2.00;2.00;;;;;;;;5122488;27;45240;-75
2022/11/02 01:12:27;;;;;;;;;3.00;2.25;;;;;;;;5123842;27;45537;-73
2022/11/02 01:14:52;;;;;;;;;2.00;2.00;;;;;;;;5120553;27;46401;-74
2022/11/02 01:17:18;;;;;;;;;2.25;1.75;;;;;;;;5120161;27;45312;-75
2022/11/02 01:19:43;;;;;;;;;2.00;2.00;;;;;;;;5119313;27;45370;-73
2022/11/02 01:22:08;;;;;;;;;2.75;2.00;;;;;;;;5119207;27;45514;-74
2022/11/02 01:24:34;;;;;;;;;3.25;2.00;;;;;;;;5119062;27;45965;-74
2022/11/02 01:26:59;;;;;;;;;2.00;1.25;;;;;;;;5119339;27;45435;-75
2022/11/02 01:29:24;;;;;;;;;2.00;2.00;;;;;;;;5119560;27;45311;-75
2022/11/02 01:31:52;;;;;;;;;1.25;1.25;;;;;;;;5118639;27;45699;-75
2022/11/02 01:34:17;;;;;;;;;2.00;2.00;;;;;;;;5119597;27;47473;-71
2022/11/02 01:36:43;;;;;;;;;1.00;1.00;;;;;;;;5121631;27;45243;-74
2022/11/02 01:39:08;;;;;;;;;1.00;1.00;;;;;;;;5119070;27;45345;-73
2022/11/02 01:41:34;;;;;;;;;1.75;1.75;;;;;;;;5119474;27;45597;-72
2022/11/02 01:44:01;;;;;;;;;2.25;2.25;;;;;;;;5118876;27;46088;-75
2022/11/02 01:46:34;;;;;;;;;2.50;2.50;;;;;;;;5119205;27;45374;-73
2022/11/02 01:49:05;;;;;;;;;3.00;2.75;;;;;;;;5119083;27;45301;-72
2022/11/02 01:51:34;;;;;;;;;1.00;1.00;;;;;;;;5115005;27;45505;-72
2022/11/02 01:54:03;;;;;;;;;1.75;1.75;;;;;;;;5098034;27;46338;-74
2022/11/02 01:56:30;;;;;;;;;2.00;2.00;;;;;;;;5097976;27;45389;-72
2022/11/02 01:58:58;;;;;;;;;1.25;1.25;;;;;;;;5098498;27;45314;-74
2022/11/02 02:01:24;;;;;;;;;1.25;1.25;;;;;;;;5097293;27;45385;-74
2022/11/02 02:03:50;;;;;;;;;2.00;2.00;;;;;;;;5098376;27;46263;-73
2022/11/02 02:06:16;;;;;;;;;1.25;1.25;;;;;;;;5098087;27;45304;-74
2022/11/02 02:08:44;;;;;;;;;2.50;2.50;;;;;;;;5097793;27;45569;-75
2022/11/02 02:11:27;;;;;;;;;0.25;0.25;;;;;;;;5098137;27;45433;-73
2022/11/02 02:13:57;;;;;;;;;2.25;2.25;;;;;;;;5098041;27;46241;-71
2022/11/02 02:16:52;;;;;;;;;2.50;2.00;;;;;;;;5098975;27;45443;-70
2022/11/02 02:19:26;;;;;;;;;2.75;2.00;;;;;;;;5080767;27;45545;-73
2022/11/02 02:22:12;;;;;;;;;2.25;2.25;;;;;;;;5090751;27;45420;-72
2022/11/02 02:24:43;;;;;;;;;1.00;1.00;;;;;;;;5075142;28;46483;-71
2022/11/02 02:27:15;;;;;;;;;3.00;3.00;;;;;;;;5078171;28;45337;-73
2022/11/02 02:30:00;;;;;;;;;1.75;1.50;;;;;;;;5079270;28;45454;-71
2022/11/02 02:32:26;;;;;;;;;1.50;1.50;;;;;;;;5082967;28;45308;-72
2022/11/02 02:35:08;;;;;;;;;2.75;2.75;;;;;;;;5078037;28;46063;-71
2022/11/02 02:37:42;;;;;;;;;1.00;1.00;;;;;;;;5059644;28;45755;-70
2022/11/02 02:40:15;;;;;;;;;1.00;1.00;;;;;;;;5059376;28;45270;-72
2022/11/02 02:42:46;;;;;;;;;1.75;1.75;;;;;;;;5077938;28;45380;-71
2022/11/02 02:45:30;;;;;;;;;1.50;1.50;;;;;;;;5077980;28;45437;-73
2022/11/02 02:48:07;;;;;;;;;1.75;1.75;;;;;;;;5059816;28;45407;-75
2022/11/02 02:50:36;;;;;;;;;1.00;1.00;;;;;;;;5078610;28;45401;-74
2022/11/02 02:53:03;;;;;;;;;1.00;1.00;;;;;;;;5080674;28;45457;-74
2022/11/02 02:55:32;;;;;;;;;2.00;2.00;;;;;;;;5077904;28;45321;-71
2022/11/02 02:57:59;;;;;;;;;2.75;1.75;;;;;;;;5076831;28;45445;-73
2022/11/02 03:00:24;;;;;;;;;2.25;2.25;;;;;;;;5078824;28;45402;-73
2022/11/02 03:03:02;;;;;;;;;2.00;2.00;;;;;;;;5080897;28;45597;-75
2022/11/02 03:05:29;;;;;;;;;3.00;3.00;;;;;;;;5061128;28;46164;-73
2022/11/02 03:07:56;;;;;;;;;3.00;1.50;;;;;;;;5077071;28;45252;-72
2022/11/02 03:10:29;;;;;;;;;2.25;2.25;;;;;;;;5080014;28;45311;-72
2022/11/02 03:12:55;;;;;;;;;3.25;3.25;;;;;;;;5084751;28;45320;-75
2022/11/02 03:15:33;;;;;;;;;1.60;1.60;;;;;;;;5081415;28;45199;-73
2022/11/02 03:18:04;;;;;;;;;3.00;3.00;;;;;;;;5083594;28;45394;-73
2022/11/02 03:20:37;;;;;;;;;1.75;1.75;;;;;;;;5088256;28;45246;-75
2022/11/02 03:23:18;;;;;;;;;1.25;1.25;;;;;;;;5105412;27;45219;-72
2022/11/02 03:25:52;;;;;;;;;2.25;2.25;;;;;;;;5098171;27;45452;-74
2022/11/02 03:28:17;;;;;;;;;1.00;1.00;;;;;;;;5096914;27;45298;-75
2022/11/02 03:30:49;;;;;;;;;1.75;1.75;;;;;;;;5097228;27;45592;-72
2022/11/02 03:33:14;;;;;;;;;1.25;1.25;;;;;;;;5096871;27;45350;-71
2022/11/02 03:35:39;;;;;;;;;2.00;2.00;;;;;;;;5095870;27;46130;-71
2022/11/02 03:38:12;;;;;;;;;2.50;2.50;;;;;;;;5096357;27;45214;-70
2022/11/02 03:40:40;;;;;;;;;3.75;1.50;;;;;;;;5096507;27;45246;-71
2022/11/02 03:43:06;;;;;;;;;3.00;2.00;;;;;;;;5097961;27;45574;-75
2022/11/02 03:45:37;;;;;;;;;1.50;1.50;;;;;;;;5101501;27;46234;-71
2022/11/02 03:48:05;;;;;;;;;5.00;2.75;;;;;;;;5105887;27;45357;-72
2022/11/02 03:50:31;;;;;;;;;1.50;1.50;;;;;;;;5103209;27;45424;-72
2022/11/02 03:53:02;;;;;;;;;3.00;3.00;;;;;;;;5104764;27;45595;-74
2022/11/02 03:55:30;;;;;;;;;3.75;3.00;;;;;;;;5098863;27;45418;-71
2022/11/02 03:57:56;;;;;;;;;2.50;2.50;;;;;;;;5097976;27;45273;-72
2022/11/02 04:00:23;;;;;;;;;2.00;2.00;;;;;;;;5096312;27;45341;-72
2022/11/02 04:02:50;;;;;;;;;2.00;2.00;;;;;;;;5096321;27;45343;-73
2022/11/02 04:05:16;;;;;;;;;1.75;1.75;;;;;;;;5094422;27;46032;-74
2022/11/02 04:10:26;;;;;;;;;3.75;3.75;;;;;;;;5096509;27;45330;-74
2022/11/02 04:15:35;;;;;;;;;2.75;2.75;;;;;;;;5096805;27;45716;-74
2022/11/02 04:20:48;;;;;;;;;5.50;3.00;;;;;;;;5096323;27;45749;-75
2022/11/02 04:25:57;;;;;;;;;3.00;3.00;;;;;;;;5096622;27;45433;-75
2022/11/02 04:28:22;;;;;;;;;5.00;3.25;;;;;;;;5096057;27;45276;-74
2022/11/02 04:30:47;;;;;;;;;2.00;2.00;;;;;;;;5096990;27;45374;-75
2022/11/02 04:35:58;;;;;;;;;3.25;2.00;;;;;;;;5097211;27;45326;-75
2022/11/02 04:38:41;;;;;;;;;2.00;2.00;;;;;;;;5096894;27;45570;-74
2022/11/02 04:43:55;;;;;;;;;1.50;1.50;;;;;;;;5096666;27;45209;-77
2022/11/02 04:46:22;;;;;;;;;2.00;1.50;;;;;;;;5098103;27;46181;-73
2022/11/02 04:48:47;;;;;;;;;4.00;3.00;;;;;;;;5100375;27;45404;-76
2022/11/02 04:51:13;;;;;;;;;1.50;1.50;;;;;;;;5102344;27;45271;-71
2022/11/02 04:53:38;;;;;;;;;2.75;0.75;;;;;;;;5099028;27;45241;-71
2022/11/02 04:56:03;;;;;;;;;3.00;3.00;;;;;;;;5096951;27;47579;-73
2022/11/02 04:58:29;;;;;;;;;2.50;2.50;;;;;;;;5097666;27;45400;-72
2022/11/02 05:00:54;;;;;;;;;3.50;3.50;;;;;;;;5100697;27;45247;-71
2022/11/02 05:03:19;;;;;;;;;3.00;3.00;;;;;;;;5101384;27;45260;-72
2022/11/02 05:05:44;;;;;;;;;3.00;3.00;;;;;;;;5101352;27;46184;-73
2022/11/02 05:08:10;;;;;;;;;2.50;2.50;;;;;;;;5099960;27;45385;-73
2022/11/02 05:10:35;;;;;;;;;2.00;2.00;;;;;;;;5098829;27;45319;-75
2022/11/02 05:13:00;;;;;;;;;2.50;2.50;;;;;;;;5098522;27;45331;-75
2022/11/02 05:15:25;;;;;;;;;4.00;4.00;;;;;;;;5098613;27;47051;-74
2022/11/02 05:17:50;;;;;;;;;4.00;3.25;;;;;;;;5097627;27;45982;-73
2022/11/02 05:20:16;;;;;;;;;4.00;2.25;;;;;;;;5098778;27;45475;-74
2022/11/02 05:22:41;;;;;;;;;3.00;3.00;;;;;;;;5098742;27;45556;-75
2022/11/02 05:25:06;;;;;;;;;3.75;2.75;;;;;;;;5097344;27;45870;-73
2022/11/02 05:27:32;;;;;;;;;2.00;2.00;;;;;;;;5097954;27;45477;-71
2022/11/02 05:29:58;;;;;;;;;1.50;1.50;;;;;;;;5099857;27;45270;-74
2022/11/02 05:32:24;;;;;;;;;3.00;2.75;;;;;;;;5098707;27;45512;-73
2022/11/02 05:34:49;;;;;;;;;3.00;1.75;;;;;;;;5098053;27;46447;-74
2022/11/02 05:37:15;;;;;;;;;5.25;4.25;;;;;;;;5096260;27;45275;-72
2022/11/02 05:39:40;;;;;;;;;2.00;2.00;;;;;;;;5097728;27;45359;-71
2022/11/02 05:42:05;;;;;;;;;2.75;2.50;;;;;;;;5098514;27;45535;-71
2022/11/02 05:44:30;;;;;;;;;3.00;3.00;;;;;;;;5099852;27;45901;-71
2022/11/02 05:46:56;;;;;;;;;9.25;7.25;;;;;;;;5098226;27;45219;-72
2022/11/02 05:49:21;;;;;;;;;6.75;6.00;;;;;;;;5098167;27;45144;-73
2022/11/02 05:51:47;;;;;;;;;5.75;4.00;;;;;;;;5099389;27;45355;-71
2022/11/02 05:54:13;;;;;;;;;2.25;2.25;;;;;;;;5097854;27;46399;-74
2022/11/02 05:56:38;;;;;;;;;4.25;3.75;;;;;;;;5097310;27;45290;-72
2022/11/02 05:59:03;;;;;;;;;4.75;4.75;;;;;;;;5097458;27;45465;-75
2022/11/02 06:01:28;;;;;;;;;2.00;2.00;;;;;;;;5097239;27;45301;-74
2022/11/02 06:03:53;;;;;;;;;2.50;2.50;;;;;;;;5096976;27;45444;-75
2022/11/02 06:06:19;;;;;;;;;3.75;3.75;;;;;;;;5097125;27;45477;-74
2022/11/02 06:08:44;;;;;;;;;6.25;5.75;;;;;;;;5095493;27;45294;-73
2022/11/02 06:11:10;;;;;;;;;3.75;3.75;;;;;;;;5097083;27;45387;-75
2022/11/02 06:13:35;;;;;;;;;6.00;6.00;;;;;;;;5096842;27;46198;-72
2022/11/02 06:16:02;;;;;;;;;3.50;2.75;;;;;;;;5097172;27;45419;-74
2022/11/02 06:18:27;;;;;;;;;5.25;5.25;;;;;;;;5096945;27;45282;-75
2022/11/02 06:20:55;;;;;;;;;2.25;2.25;;;;;;;;5097421;27;45293;-72
2022/11/02 06:23:20;;;;;;;;;2.50;2.50;;;;;;;;5096937;27;45309;-75
2022/11/02 06:25:49;;;;;;;;;4.25;3.00;;;;;;;;5096747;27;45248;-72
2022/11/02 06:28:15;;;;;;;;;3.50;3.50;;;;;;;;5097163;27;45455;-73
2022/11/02 06:30:41;;;;;;;;;6.50;5.25;;;;;;;;5100326;27;45532;-77
2022/11/02 06:33:06;;;;;;;;;5.00;5.00;;;;;;;;5099594;27;46125;-73
2022/11/02 06:35:32;;;;;;;;;5.75;5.00;;;;;;;;5100462;27;45244;-74
2022/11/02 06:37:57;;;;;;;;;4.75;4.00;;;;;;;;5099737;27;45291;-72
2022/11/02 06:40:22;;;;;;;;;7.25;5.25;;;;;;;;5097691;27;45210;-74
2022/11/02 06:42:48;;;;;;;;;6.25;6.00;;;;;;;;5097147;27;45434;-73
2022/11/02 06:45:13;;;;;;;;;5.00;4.00;;;;;;;;5098544;27;45218;-74
2022/11/02 06:47:39;;;;;;;;;4.00;4.00;;;;;;;;5095584;27;45493;-74
2022/11/02 06:50:05;;;;;;;;;4.00;4.00;;;;;;;;5095518;27;45473;-72
2022/11/02 06:52:30;;;;;;;;;4.75;4.75;;;;;;;;5097055;27;47292;-74
2022/11/02 06:54:55;;;;;;;;;4.75;4.75;;;;;;;;5102002;27;45274;-74
2022/11/02 06:57:22;;;;;;;;;5.50;5.50;;;;;;;;5099729;27;45357;-73
2022/11/02 06:59:47;;;;;;;;;7.75;7.75;;;;;;;;5098354;27;45468;-73
2022/11/02 07:02:13;;;;;;;;;4.75;4.75;;;;;;;;5097316;27;45957;-73
2022/11/02 07:04:38;;;;;;;;;6.25;6.25;;;;;;;;5083879;27;45353;-71
2022/11/02 07:07:03;;;;;;;;;2.25;2.25;;;;;;;;5091825;27;45332;-75
2022/11/02 07:09:28;;;;;;;;;5.00;5.00;;;;;;;;5093223;27;45646;-75
2022/11/02 07:11:53;;;;;;;;;4.75;4.50;;;;;;;;5076372;28;45980;-74
2022/11/02 07:14:19;;;;;;;;;6.25;6.25;;;;;;;;5081909;27;45539;-75
2022/11/02 07:16:44;;;;;;;;;5.25;4.25;;;;;;;;5087835;27;45382;-75
2022/11/02 07:19:09;;;;;;;;;6.50;5.25;;;;;;;;5082877;27;45581;-73
2022/11/02 07:21:34;;;;;;;;;13.75;11.75;;;;;;;;5075831;28;46301;-73
2022/11/02 07:24:01;;;;;;;;;10.00;8.00;;;;;;;;5075007;27;45411;-73
2022/11/02 07:26:26;;;;;;;;;3.75;3.75;;;;;;;;5075900;28;45389;-73
2022/11/02 07:28:51;;;;;;;;;5.25;4.25;;;;;;;;5086581;27;45355;-73
2022/11/02 07:31:17;;;;;;;;;9.00;9.00;;;;;;;;5096228;27;46039;-70
2022/11/02 07:33:42;;;;;;;;;5.00;5.00;;;;;;;;5089576;27;45267;-74
2022/11/02 07:36:07;;;;;;;;;10.50;9.25;;;;;;;;5076227;28;45315;-74
2022/11/02 07:38:32;;;;;;;;;4.00;4.00;;;;;;;;5092734;27;45588;-72
2022/11/02 07:40:58;;;;;;;;;7.00;5.00;;;;;;;;5094715;27;45466;-74
2022/11/02 07:43:23;;;;;;;;;8.25;7.50;;;;;;;;5095584;27;45508;-74
2022/11/02 07:45:48;;;;;;;;;6.50;6.50;;;;;;;;5095627;27;45351;-74
2022/11/02 07:48:13;;;;;;;;;5.00;5.00;;;;;;;;5096392;27;45594;-74
2022/11/02 07:50:39;;;;;;;;;8.00;4.75;;;;;;;;5096307;27;47305;-74
2022/11/02 07:53:04;;;;;;;;;4.00;3.50;;;;;;;;5096061;27;45211;-74
2022/11/02 07:55:30;;;;;;;;;6.25;4.00;;;;;;;;5096137;27;45143;-73
2022/11/02 07:57:55;;;;;;;;;5.50;5.25;;;;;;;;5104929;27;45199;-74
2022/11/02 08:00:21;;;;;;;;;3.25;3.25;;;;;;;;5096926;27;45519;-76
2022/11/02 08:02:46;;;;;;;;;4.00;3.25;;;;;;;;5096061;27;45328;-74
2022/11/02 08:05:11;;;;;;;;;5.00;4.75;;;;;;;;5095510;27;45306;-71
2022/11/02 08:07:37;;;;;;;;;7.25;7.00;;;;;;;;5095892;27;45452;-74
2022/11/02 08:10:02;;;;;;;;;4.50;4.50;;;;;;;;5095859;27;46473;-73
2022/11/02 08:12:27;;;;;;;;;5.50;5.50;;;;;;;;5095578;27;45291;-74
2022/11/02 08:14:52;;;;;;;;;4.75;4.75;;;;;;;;5094954;27;45358;-74
2022/11/02 08:17:18;;;;;;;;;7.25;5.50;;;;;;;;5097855;27;45383;-75
2022/11/02 08:19:43;;;;;;;;;8.25;8.25;;;;;;;;5097609;27;45278;-72
2022/11/02 08:22:08;;;;;;;;;6.25;6.00;;;;;;;;5094830;27;45337;-75
2022/11/02 08:24:33;;;;;;;;;6.75;6.50;;;;;;;;5100005;27;45395;-73
2022/11/02 08:26:59;;;;;;;;;6.00;6.00;;;;;;;;5105345;27;45658;-74
2022/11/02 08:29:24;;;;;;;;;3.50;3.50;;;;;;;;5105006;27;46246;-75
2022/11/02 08:31:49;;;;;;;;;5.25;4.75;;;;;;;;5100599;27;45451;-73
2022/11/02 08:34:15;;;;;;;;;5.00;5.00;;;;;;;;5099285;27;45446;-74
2022/11/02 08:36:40;;;;;;;;;8.00;7.75;;;;;;;;5100108;27;45269;-75
2022/11/02 08:39:05;;;;;;;;;5.75;5.25;;;;;;;;5099516;27;46082;-76
2022/11/02 08:41:30;;;;;;;;;10.25;9.00;;;;;;;;5097881;27;45194;-73
2022/11/02 08:43:56;;;;;;;;;7.50;7.50;;;;;;;;5099462;27;45426;-73
2022/11/02 08:46:22;;;;;;;;;8.00;8.00;;;;;;;;5099049;27;45520;-75
2022/11/02 08:48:47;;;;;;;;;5.75;5.75;;;;;;;;5100345;27;45514;-74
2022/11/02 08:51:12;;;;;;;;;6.50;6.50;;;;;;;;5098986;27;45266;-74
2022/11/02 08:53:38;;;;;;;;;8.00;7.50;;;;;;;;5098553;27;45236;-71
2022/11/02 08:56:03;;;;;;;;;5.50;4.00;;;;;;;;5098649;27;45448;-72
2022/11/02 08:58:28;;;;;;;;;6.75;6.75;;;;;;;;5098182;27;46439;-74
2022/11/02 09:00:54;;;;;;;;;5.50;5.50;;;;;;;;5098597;27;45438;-74
2022/11/02 09:03:20;;;;;;;;;8.25;6.75;;;;;;;;5098713;27;45206;-73
2022/11/02 09:05:46;;;;;;;;;6.25;6.25;;;;;;;;5098799;27;45470;-70
2022/11/02 09:08:20;;;;;;;;;10.25;9.00;;;;;;;;5097022;27;47941;-73
2022/11/02 09:10:48;;;;;;;;;7.50;7.50;;;;;;;;5099692;27;45799;-71
2022/11/02 09:13:14;;;;;;;;;5.25;5.25;;;;;;;;5099924;27;45379;-75
2022/11/02 09:15:39;;;;;;;;;17.50;17.00;;;;;;;;5099296;27;45289;-74
2022/11/02 09:18:05;;;;;;;;;6.75;6.00;;;;;;;;5098777;27;45326;-75
2022/11/02 09:20:31;;;;;;;;;6.00;6.00;;;;;;;;5105237;27;45292;-73
2022/11/02 09:22:56;;;;;;;;;6.25;6.25;;;;;;;;5099362;27;45423;-74
2022/11/02 09:25:21;;;;;;;;;8.50;8.25;;;;;;;;5098842;27;45297;-72
2022/11/02 09:27:51;;;;;;;;;7.50;6.00;;;;;;;;5098228;27;46251;-73
2022/11/02 09:30:16;;;;;;;;;6.00;6.00;;;;;;;;5098370;27;45258;-75
2022/11/02 09:32:41;;;;;;;;;5.50;5.50;;;;;;;;5097745;27;45355;-75
2022/11/02 09:35:08;;;;;;;;;6.50;6.50;;;;;;;;5101328;27;45173;-73
2022/11/02 09:37:33;;;;;;;;;10.00;9.00;;;;;;;;5099850;27;45465;-75
2022/11/02 09:39:58;;;;;;;;;7.00;7.00;;;;;;;;5095842;27;45480;-74
2022/11/02 09:42:26;;;;;;;;;5.00;5.00;;;;;;;;5098140;27;45307;-75
2022/11/02 09:45:00;;;;;;;;;5.00;5.00;;;;;;;;5098217;27;45592;-73
2022/11/02 09:47:26;;;;;;;;;6.00;5.25;;;;;;;;5099800;27;45405;-75
2022/11/02 09:49:53;;;;;;;;;9.75;9.00;;;;;;;;5100485;27;45391;-73
2022/11/02 09:52:23;;;;;;;;;12.25;12.25;;;;;;;;5100435;27;45330;-75
2022/11/02 09:54:50;;;;;;;;;7.50;5.50;;;;;;;;5100788;27;45323;-73
2022/11/02 09:57:19;;;;;;;;;8.00;7.00;;;;;;;;5100225;27;46234;-74
2022/11/02 09:59:45;;;;;;;;;6.50;6.50;;;;;;;;5097786;27;45289;-74
2022/11/02 10:02:10;;;;;;;;;7.00;6.25;;;;;;;;5098263;27;45247;-75
2022/11/02 10:04:54;;;;;;;;;8.75;7.25;;;;;;;;5098492;27;45278;-74
2022/11/02 10:07:25;;;;;;;;;16.25;13.75;;;;;;;;5097790;27;46720;-72
2022/11/02 10:09:50;;;;;;;;;5.00;4.75;;;;;;;;5098421;27;45346;-73
2022/11/02 10:12:34;;;;;;;;;6.00;6.00;;;;;;;;5100779;27;45375;-74
2022/11/02 10:15:05;;;;;;;;;3.75;3.00;;;;;;;;5098783;27;45485;-73
2022/11/02 10:17:35;;;;;;;;;6.00;6.00;;;;;;;;5097942;27;45454;-74
2022/11/02 10:20:03;;;;;;;;;9.00;9.00;;;;;;;;5098231;27;45380;-73
2022/11/02 10:22:36;;;;;;;;;8.00;8.00;;;;;;;;5080611;27;45353;-72
2022/11/02 10:25:03;;;;;;;;;7.50;6.25;;;;;;;;5097890;27;45416;-74
2022/11/02 10:27:31;;;;;;;;;15.00;13.50;;;;;;;;5096272;27;48663;-74
2022/11/02 10:30:00;;;;;;;;;5.75;5.00;;;;;;;;5097721;27;45185;-72
2022/11/02 10:32:25;;;;;;;;;6.00;6.00;;;;;;;;5098304;27;45414;-72
2022/11/02 10:34:51;;;;;;;;;9.25;8.00;;;;;;;;5096574;27;45620;-72
2022/11/02 10:37:16;;;;;;;;;9.25;9.25;;;;;;;;5097965;27;46247;-72
2022/11/02 10:39:50;;;;;;;;;4.00;4.00;;;;;;;;5095944;27;45317;-72
2022/11/02 10:42:21;;;;;;;;;6.00;5.00;;;;;;;;5097628;27;45296;-73
2022/11/02 10:44:46;;;;;;;;;5.00;5.00;;;;;;;;5097129;27;45151;-71
2022/11/02 10:47:17;;;;;;;;;6.75;5.25;;;;;;;;5097643;27;46458;-76
2022/11/02 10:49:45;;;;;;;;;6.50;5.75;;;;;;;;5097096;27;45299;-74
2022/11/02 10:52:13;;;;;;;;;5.00;5.00;;;;;;;;5097145;27;45295;-72
2022/11/02 10:54:38;;;;;;;;;5.00;5.00;;;;;;;;5097206;27;45410;-73
2022/11/02 10:57:13;;;;;;;;;4.00;4.00;;;;;;;;5096569;27;45629;-74
2022/11/02 10:59:38;;;;;;;;;9.00;9.00;;;;;;;;5096713;27;45411;-74
2022/11/02 11:02:03;;;;;;;;;4.00;4.00;;;;;;;;5098431;27;45347;-73
2022/11/02 11:04:30;;;;;;;;;10.50;9.50;;;;;;;;5101433;27;45392;-74
2022/11/02 11:06:57;;;;;;;;;5.00;5.00;;;;;;;;5098212;27;47054;-74
2022/11/02 11:09:29;;;;;;;;;4.00;4.00;;;;;;;;5097395;27;45295;-72
2022/11/02 11:11:55;;;;;;;;;4.00;4.00;;;;;;;;5095414;27;45450;-73
2022/11/02 11:14:22;;;;;;;;;5.50;5.50;;;;;;;;5097136;27;45258;-75
2022/11/02 11:16:49;;;;;;;;;7.00;6.00;;;;;;;;5095023;27;46828;-74
2022/11/02 11:19:18;;;;;;;;;8.50;8.25;;;;;;;;5097068;27;45461;-72
2022/11/02 11:21:43;;;;;;;;;10.75;10.75;;;;;;;;5097009;27;45339;-75
2022/11/02 11:24:25;;;;;;;;;7.75;6.00;;;;;;;;5098046;27;45490;-75
2022/11/02 11:27:09;;;;;;;;;5.00;5.00;;;;;;;;5098863;27;47286;-71
2022/11/02 11:29:36;;;;;;;;;7.50;7.50;;;;;;;;5097419;27;45433;-73
2022/11/02 11:32:02;;;;;;;;;8.25;8.25;;;;;;;;5097198;27;45393;-76
2022/11/02 11:34:29;;;;;;;;;5.75;5.75;;;;;;;;5096852;27;45371;-73
2022/11/02 11:37:05;;;;;;;;;5.75;5.25;;;;;;;;5096704;27;46501;-74
2022/11/02 11:39:32;;;;;;;;;6.75;6.75;;;;;;;;5096794;27;45310;-76
2022/11/02 11:41:58;;;;;;;;;15.00;11.50;;;;;;;;5096794;27;45477;-72
2022/11/02 11:44:24;;;;;;;;;7.00;7.00;;;;;;;;5097517;27;45390;-75
2022/11/02 11:46:51;;;;;;;;;11.25;11.25;;;;;;;;5097559;27;45354;-74
2022/11/02 11:49:38;;;;;;;;;9.00;9.00;;;;;;;;5098255;27;45332;-74
2022/11/02 11:52:04;;;;;;;;;6.75;6.75;;;;;;;;5099660;27;45279;-74
2022/11/02 11:54:30;;;;;;;;;5.00;5.00;;;;;;;;5104130;27;45423;-74
2022/11/02 11:56:56;;;;;;;;;4.75;4.75;;;;;;;;5098885;27;46210;-70
2022/11/02 11:59:48;;;;;;;;;9.50;9.50;;;;;;;;5098592;27;45357;-74
2022/11/02 12:02:32;;;;;;;;;19.75;18.00;;;;;;;;5100745;27;45279;-74
2022/11/02 12:05:16;;;;;;;;;8.25;8.25;;;;;;;;5100282;27;45404;-72
2022/11/02 12:07:41;;;;;;;;;5.25;5.25;;;;;;;;5103041;27;46076;-75
2022/11/02 12:10:07;;;;;;;;;8.50;7.50;;;;;;;;5102513;27;45365;-75
2022/11/02 12:12:38;;;;;;;;;7.00;7.00;;;;;;;;5099481;27;45546;-71
2022/11/02 12:15:26;;;;;;;;;4.75;4.75;;;;;;;;5104306;27;45295;-75
2022/11/02 12:17:51;;;;;;;;;7.50;6.75;;;;;;;;5097907;27;45467;-74
2022/11/02 12:20:46;;;;;;;;;6.25;6.25;;;;;;;;5096012;27;45263;-72
2022/11/02 12:23:23;;;;;;;;;5.25;5.25;;;;;;;;5082671;27;45865;-75
2022/11/02 12:26:07;;;;;;;;;3.75;3.75;;;;;;;;5094690;27;45453;-74
2022/11/02 12:28:41;;;;;;;;;7.00;7.00;;;;;;;;5095604;27;45395;-73
2022/11/02 12:31:09;;;;;;;;;4.75;4.75;;;;;;;;5098762;27;45847;-75
2022/11/02 12:33:47;;;;;;;;;5.00;5.00;;;;;;;;5095913;27;45298;-74
2022/11/02 12:36:35;;;;;;;;;6.00;4.25;;;;;;;;5096318;27;45408;-75
2022/11/02 12:39:11;;;;;;;;;4.00;4.00;;;;;;;;5088083;27;46221;-74
2022/11/02 12:41:37;;;;;;;;;13.00;13.00;;;;;;;;5094328;27;45323;-71
2022/11/02 12:44:15;;;;;;;;;4.00;4.00;;;;;;;;5096071;27;45466;-74
2022/11/02 12:46:48;;;;;;;;;5.00;5.00;;;;;;;;5094640;27;45538;-75
2022/11/02 12:49:17;;;;;;;;;5.25;4.75;;;;;;;;5095444;27;46460;-70
2022/11/02 12:51:58;;;;;;;;;4.25;4.25;;;;;;;;5095677;27;45465;-73
2022/11/02 12:54:27;;;;;;;;;3.00;3.00;;;;;;;;5095693;27;45547;-76
2022/11/02 12:56:52;;;;;;;;;7.25;7.25;;;;;;;;5095771;27;45615;-74
2022/11/02 12:59:24;;;;;;;;;5.00;5.00;;;;;;;;5095308;27;46246;-73
2022/11/02 13:01:53;;;;;;;;;3.25;3.25;;;;;;;;5095364;27;45371;-73
2022/11/02 13:04:27;;;;;;;;;3.25;3.25;;;;;;;;5095657;27;45337;-73
2022/11/02 13:06:56;;;;;;;;;4.25;4.25;;;;;;;;5095511;27;45185;-76
2022/11/02 13:09:32;;;;;;;;;3.00;3.00;;;;;;;;5097937;27;46388;-72
2022/11/02 13:12:02;;;;;;;;;6.75;6.75;;;;;;;;5098255;27;45462;-74
2022/11/02 13:14:54;;;;;;;;;4.50;4.50;;;;;;;;5099069;27;45615;-76
2022/11/02 13:17:20;;;;;;;;;6.25;6.25;;;;;;;;5097998;27;45563;-72
2022/11/02 13:19:47;;;;;;;;;5.75;5.75;;;;;;;;5097035;27;47095;-74
2022/11/02 13:22:14;;;;;;;;;6.00;6.00;;;;;;;;5098587;27;45511;-73
2022/11/02 13:24:44;;;;;;;;;5.00;4.75;;;;;;;;5099549;27;45280;-74
2022/11/02 13:27:18;;;;;;;;;7.00;6.25;;;;;;;;5100608;27;45470;-73
2022/11/02 13:29:45;;;;;;;;;4.50;3.75;;;;;;;;5099065;27;46095;-76
2022/11/02 13:32:29;;;;;;;;;4.25;3.50;;;;;;;;5099793;27;45436;-73
2022/11/02 13:34:55;;;;;;;;;1.75;1.75;;;;;;;;5102653;27;45351;-74
2022/11/02 13:37:31;;;;;;;;;3.75;3.75;;;;;;;;5105637;27;45254;-73
2022/11/02 13:39:59;;;;;;;;;5.00;5.00;;;;;;;;5102032;27;45713;-74
2022/11/02 13:42:27;;;;;;;;;8.00;8.00;;;;;;;;5101455;27;45280;-74
2022/11/02 13:45:01;;;;;;;;;4.25;4.25;;;;;;;;5101220;27;45266;-74
2022/11/02 13:47:32;;;;;;;;;3.00;3.00;;;;;;;;5100450;27;45212;-74
2022/11/02 13:49:59;;;;;;;;;6.00;5.00;;;;;;;;5099383;27;46422;-74
2022/11/02 13:52:33;;;;;;;;;4.00;4.00;;;;;;;;5098499;27;45244;-73
2022/11/02 13:55:00;;;;;;;;;3.25;3.25;;;;;;;;5097607;27;45365;-76
2022/11/02 13:57:31;;;;;;;;;7.50;7.50;;;;;;;;5097154;27;45355;-75
2022/11/02 13:59:56;;;;;;;;;2.00;1.50;;;;;;;;5097098;27;46486;-74
2022/11/02 14:02:23;;;;;;;;;1.00;1.00;;;;;;;;5097945;27;45567;-71
2022/11/02 14:04:48;;;;;;;;;3.25;3.25;;;;;;;;5098650;27;45374;-73
2022/11/02 14:07:22;;;;;;;;;4.50;4.50;;;;;;;;5098253;27;45306;-75
2022/11/02 14:09:47;;;;;;;;;4.00;4.00;;;;;;;;5096968;27;46650;-75
2022/11/02 14:12:15;;;;;;;;;3.00;3.00;;;;;;;;5097793;27;45350;-73
2022/11/02 14:14:41;;;;;;;;;3.25;3.25;;;;;;;;5099613;27;45329;-75
2022/11/02 14:17:11;;;;;;;;;5.00;5.00;;;;;;;;5100572;27;45309;-74
2022/11/02 14:19:39;;;;;;;;;5.50;5.50;;;;;;;;5098205;27;45500;-73
2022/11/02 14:22:09;;;;;;;;;3.25;3.25;;;;;;;;5100200;27;45372;-74
2022/11/02 14:24:38;;;;;;;;;3.50;3.50;;;;;;;;5101246;27;45428;-75
2022/11/02 14:27:13;;;;;;;;;3.00;3.00;;;;;;;;5098101;27;45636;-72
2022/11/02 14:29:43;;;;;;;;;6.00;6.00;;;;;;;;5097244;27;46024;-72
2022/11/02 14:32:15;;;;;;;;;3.25;3.00;;;;;;;;5097469;27;45574;-75
2022/11/02 14:34:46;;;;;;;;;3.50;3.50;;;;;;;;5097993;27;45225;-72
2022/11/02 14:37:30;;;;;;;;;2.75;2.75;;;;;;;;5098035;27;45507;-75
2022/11/02 14:39:58;;;;;;;;;6.00;6.00;;;;;;;;5097012;27;46552;-71
2022/11/02 14:42:42;;;;;;;;;4.50;4.50;;;;;;;;5096971;27;45704;-72
2022/11/02 14:45:28;;;;;;;;;3.50;3.50;;;;;;;;5099355;27;45422;-73
2022/11/02 14:47:58;;;;;;;;;4.25;3.75;;;;;;;;5098230;27;45673;-76
2022/11/02 14:50:23;;;;;;;;;3.25;3.25;;;;;;;;5096110;27;45661;-74
2022/11/02 14:52:58;;;;;;;;;3.00;2.75;;;;;;;;5097585;27;45329;-76
2022/11/02 14:55:26;;;;;;;;;2.75;2.75;;;;;;;;5097668;27;45344;-70
2022/11/02 14:58:04;;;;;;;;;2.75;2.75;;;;;;;;5098172;27;45326;-73
2022/11/02 15:00:36;;;;;;;;;3.25;3.00;;;;;;;;5097571;27;45523;-74
2022/11/02 15:03:03;;;;;;;;;8.00;7.75;;;;;;;;5096269;27;45417;-74
2022/11/02 15:05:30;;;;;;;;;5.00;5.00;;;;;;;;5097354;27;45275;-73
2022/11/02 15:07:58;;;;;;;;;4.75;4.50;;;;;;;;5097206;27;45313;-72